Time;durP1;ratioP1;P1;durP2;ratioP2;P2;SDS_P1;SDS_P2;PMS_P1;PMS_P2;Temp;Humidity;BMP_temperature;BMP_pressure;BME280_temperature;BME280_humidity;BME280_pressure;Samples;Min_cycle;Max_cycle;Signal;HPM_P1;HPM_P2
2024/01/21 00:02:14;;;;;;;16.95;8.27;;;;;;;-8.48;65.74;100285.47;6276183;22;20039;-63
2024/01/21 00:04:40;;;;;;;16.40;8.30;;;;;;;-8.58;66.24;100295.00;6275433;22;20011;-66
2024/01/21 00:07:07;;;;;;;16.50;7.78;;;;;;;-8.65;66.45;100296.66;6277354;22;19999;-62
2024/01/21 00:09:33;;;;;;;15.63;8.45;;;;;;;-8.69;66.44;100287.13;6277835;22;20065;-63
2024/01/21 00:11:58;;;;;;;17.08;8.68;;;;;;;-8.66;66.82;100296.69;6276462;22;20074;-61
2024/01/21 00:14:24;;;;;;;18.75;8.60;;;;;;;-8.99;66.66;100252.38;6275724;22;20015;-62
2024/01/21 00:16:50;;;;;;;18.08;9.40;;;;;;;-8.62;66.75;100303.63;6276206;22;19999;-62
2024/01/21 00:19:15;;;;;;;18.23;8.75;;;;;;;-8.68;66.43;100295.78;6277364;22;20004;-63
2024/01/21 00:21:41;;;;;;;16.25;8.40;;;;;;;-8.65;66.29;100308.81;6276937;22;20035;-64
2024/01/21 00:24:07;;;;;;;18.98;9.57;;;;;;;-8.71;66.60;100300.94;6276800;22;20348;-64
2024/01/21 00:26:32;;;;;;;18.85;9.55;;;;;;;-8.69;66.72;100328.66;6277398;22;20003;-63
2024/01/21 00:29:00;;;;;;;19.92;9.13;;;;;;;-8.81;66.58;100319.09;6275583;22;20011;-63
2024/01/21 00:31:27;;;;;;;20.85;9.13;;;;;;;-9.01;66.77;100292.13;6276711;22;20000;-63
2024/01/21 00:33:53;;;;;;;17.92;9.15;;;;;;;-8.82;66.84;100334.63;6276695;22;20043;-62
2024/01/21 00:36:19;;;;;;;20.17;9.18;;;;;;;-8.85;67.02;100335.50;6277226;22;20061;-63
2024/01/21 00:38:44;;;;;;;20.15;9.73;;;;;;;-8.84;66.62;100336.34;6277113;22;20008;-62
2024/01/21 00:41:14;;;;;;;18.45;9.50;;;;;;;-8.83;66.96;100338.97;6276024;22;20046;-63
2024/01/21 00:43:40;;;;;;;20.02;9.75;;;;;;;-8.87;67.01;100347.59;6276274;22;20416;-63
2024/01/21 00:46:06;;;;;;;20.38;9.48;;;;;;;-8.91;66.80;100345.84;6276966;22;20011;-63
2024/01/21 00:48:32;;;;;;;19.90;9.48;;;;;;;-9.05;66.97;100337.06;6276907;22;20059;-62
2024/01/21 00:50:57;;;;;;;17.80;9.05;;;;;;;-9.08;66.93;100358.66;6276560;22;20423;-61
2024/01/21 00:53:23;;;;;;;19.80;9.70;;;;;;;-9.09;67.33;100363.00;6275581;22;20389;-62
2024/01/21 00:55:48;;;;;;;21.20;10.02;;;;;;;-9.17;67.43;100356.84;6276308;22;20000;-63
2024/01/21 00:58:14;;;;;;;23.30;9.15;;;;;;;-9.10;67.37;100376.81;6277206;22;20150;-63
2024/01/21 01:00:39;;;;;;;19.88;10.38;;;;;;;-9.16;67.43;100374.19;6276542;22;20038;-70
2024/01/21 01:03:05;;;;;;;18.60;9.52;;;;;;;-9.13;67.37;100375.91;6276062;22;20113;-63
2024/01/21 01:05:30;;;;;;;17.92;9.35;;;;;;;-9.43;67.24;100336.72;6276821;22;20011;-63
2024/01/21 01:07:56;;;;;;;17.25;9.02;;;;;;;-9.23;67.67;100385.34;6276870;22;20000;-63
2024/01/21 01:10:22;;;;;;;20.50;9.48;;;;;;;-9.31;67.32;100387.84;6275740;22;20061;-61
2024/01/21 01:12:47;;;;;;;16.60;8.80;;;;;;;-9.24;67.03;100387.06;6249574;22;20011;-66
2024/01/21 01:15:13;;;;;;;17.48;8.93;;;;;;;-9.25;67.79;100402.59;6275672;22;20428;-61
2024/01/21 01:17:38;;;;;;;20.20;9.77;;;;;;;-9.27;67.06;100409.50;6276861;22;20053;-64
2024/01/21 01:20:05;;;;;;;20.92;9.93;;;;;;;-9.46;67.27;100378.19;6276023;22;20349;-61
2024/01/21 01:22:31;;;;;;;16.27;8.95;;;;;;;-9.46;67.63;100396.34;6276018;22;20007;-63
2024/01/21 01:24:57;;;;;;;18.38;9.43;;;;;;;-9.46;67.50;100404.13;6275969;22;20082;-60
2024/01/21 01:27:24;;;;;;;19.77;9.50;;;;;;;-9.67;67.71;100379.69;6274990;22;20385;-63
2024/01/21 01:29:51;;;;;;;19.30;9.57;;;;;;;-9.81;67.48;100365.75;6275293;22;20038;-63
2024/01/21 01:32:16;;;;;;;19.83;9.63;;;;;;;-9.67;68.03;100408.22;6275765;22;20012;-64
2024/01/21 01:34:42;;;;;;;17.67;9.20;;;;;;;-9.63;67.66;100422.09;6275359;22;20015;-71
2024/01/21 01:37:09;;;;;;;19.38;8.80;;;;;;;-9.64;67.41;100430.72;6276196;22;20027;-63
2024/01/21 01:39:35;;;;;;;18.85;9.10;;;;;;;-9.70;68.02;100421.13;6275975;22;20006;-62
2024/01/21 01:42:01;;;;;;;18.00;9.30;;;;;;;-10.09;68.15;100370.59;6275976;22;20351;-61
2024/01/21 01:44:26;;;;;;;18.17;9.20;;;;;;;-9.76;68.32;100433.19;6275876;22;20016;-62
2024/01/21 01:46:52;;;;;;;24.05;9.80;;;;;;;-9.84;68.05;100422.72;6275011;22;20073;-61
2024/01/21 01:49:19;;;;;;;16.90;9.15;;;;;;;-9.78;68.11;100433.16;6275988;22;20012;-63
2024/01/21 01:51:45;;;;;;;15.98;8.25;;;;;;;-9.92;67.71;100421.72;6275589;22;20082;-64
2024/01/21 01:54:11;;;;;;;19.92;9.73;;;;;;;-9.90;68.49;100443.34;6276225;22;20004;-63
2024/01/21 01:56:37;;;;;;;21.63;9.55;;;;;;;-9.98;68.31;100431.16;6276449;22;20015;-63
2024/01/21 01:59:08;;;;;;;20.85;9.10;;;;;;;-9.98;68.22;100436.34;6274277;22;20107;-61
2024/01/21 02:01:36;;;;;;;17.20;8.23;;;;;;;-9.95;68.26;100451.91;6249193;22;20007;-63
2024/01/21 02:04:03;;;;;;;18.77;9.45;;;;;;;-10.00;68.37;100447.56;6276220;22;20004;-62
2024/01/21 02:06:29;;;;;;;16.85;8.48;;;;;;;-10.13;68.05;100437.00;6274546;22;20477;-63
2024/01/21 02:08:54;;;;;;;18.60;9.13;;;;;;;-10.06;67.70;100463.88;6275624;22;20003;-60
2024/01/21 02:11:19;;;;;;;19.13;9.05;;;;;;;-10.13;67.94;100467.19;6275861;22;20000;-63
2024/01/21 02:13:45;;;;;;;18.60;9.20;;;;;;;-10.22;67.86;100462.78;6274425;22;20054;-60
2024/01/21 02:16:11;;;;;;;21.83;9.95;;;;;;;-10.23;67.96;100464.50;6274556;22;20305;-63
2024/01/21 02:18:37;;;;;;;20.48;9.70;;;;;;;-10.25;68.15;100468.78;6275645;22;20297;-61
2024/01/21 02:21:03;;;;;;;20.90;9.45;;;;;;;-10.31;67.99;100473.88;6275592;22;20039;-64
2024/01/21 02:23:29;;;;;;;20.50;9.13;;;;;;;-10.34;67.67;100484.19;6276216;22;20030;-63
2024/01/21 02:25:54;;;;;;;20.42;9.27;;;;;;;-10.39;67.90;100478.03;6275695;22;20079;-64
2024/01/21 02:28:20;;;;;;;20.70;9.45;;;;;;;-10.50;67.81;100471.88;6274335;22;20125;-62
2024/01/21 02:30:45;;;;;;;19.88;9.27;;;;;;;-10.48;67.77;100484.00;6276125;22;20008;-63
2024/01/21 02:33:13;;;;;;;22.95;9.60;;;;;;;-10.54;68.09;100491.66;6276440;22;20035;-62
2024/01/21 02:35:38;;;;;;;21.05;9.25;;;;;;;-10.55;67.63;100492.50;6275753;22;20341;-64
2024/01/21 02:38:04;;;;;;;17.88;8.82;;;;;;;-10.58;67.30;100495.94;6275420;22;20061;-64
2024/01/21 02:40:30;;;;;;;15.45;7.28;;;;;;;-10.88;67.25;100450.56;6275684;22;20019;-63
2024/01/21 02:42:56;;;;;;;17.60;7.07;;;;;;;-10.66;66.71;100502.66;6276175;22;20004;-64
2024/01/21 02:45:21;;;;;;;11.95;6.25;;;;;;;-10.68;66.75;100509.53;6275676;22;20012;-61
2024/01/21 02:47:47;;;;;;;14.27;6.32;;;;;;;-10.75;66.73;100516.31;6275633;22;20007;-63
2024/01/21 02:50:12;;;;;;;15.45;6.45;;;;;;;-10.81;66.66;100508.44;6275273;22;20008;-62
2024/01/21 02:52:38;;;;;;;16.92;6.53;;;;;;;-10.80;66.51;100524.88;6275824;22;20003;-61
2024/01/21 02:55:04;;;;;;;14.20;6.25;;;;;;;-11.11;66.73;100476.88;6274339;22;20038;-64
2024/01/21 02:57:29;;;;;;;13.70;6.28;;;;;;;-10.91;66.53;100522.09;6275524;22;20037;-65
2024/01/21 02:59:55;;;;;;;15.38;6.93;;;;;;;-11.17;66.37;100484.53;6275598;22;20010;-64
2024/01/21 03:02:20;;;;;;;16.38;7.50;;;;;;;-10.91;66.38;100548.81;6276037;22;20003;-63
2024/01/21 03:04:46;;;;;;;12.35;6.13;;;;;;;-10.98;66.26;100545.22;6276211;22;20365;-62
2024/01/21 03:07:11;;;;;;;16.48;7.05;;;;;;;-10.97;66.11;100547.00;6275489;22;20389;-62
2024/01/21 03:09:37;;;;;;;15.82;6.97;;;;;;;-11.12;66.13;100534.63;6276286;22;20019;-63
2024/01/21 03:12:02;;;;;;;13.25;6.95;;;;;;;-11.06;66.23;100549.38;6276890;22;20376;-61
2024/01/21 03:14:28;;;;;;;13.32;6.65;;;;;;;-11.07;66.19;100565.75;6276110;22;20003;-62
2024/01/21 03:16:53;;;;;;;12.48;6.63;;;;;;;-11.06;66.43;100566.63;6277107;22;20011;-62
2024/01/21 03:19:19;;;;;;;14.85;7.32;;;;;;;-11.26;66.21;100554.19;6277322;22;19999;-65
2024/01/21 03:21:44;;;;;;;13.35;6.85;;;;;;;-11.20;66.41;100564.63;6277022;22;20003;-62
2024/01/21 03:24:10;;;;;;;14.25;7.13;;;;;;;-11.15;66.41;100578.53;6275605;22;20015;-64
2024/01/21 03:26:35;;;;;;;17.20;6.90;;;;;;;-11.16;66.31;100589.72;6277412;22;20325;-62
2024/01/21 03:29:01;;;;;;;16.33;6.88;;;;;;;-11.20;66.55;100595.66;6275343;22;20030;-61
2024/01/21 03:31:28;;;;;;;16.38;7.45;;;;;;;-11.60;66.72;100527.63;6277326;22;20064;-63
2024/01/21 03:33:53;;;;;;;22.30;7.70;;;;;;;-11.59;66.34;100537.09;6276935;22;20007;-62
2024/01/21 03:36:19;;;;;;;15.00;7.53;;;;;;;-11.32;66.64;100596.28;6276404;22;20011;-67
2024/01/21 03:38:45;;;;;;;18.25;7.38;;;;;;;-11.28;66.92;100613.59;6277572;22;20003;-61
2024/01/21 03:41:11;;;;;;;19.60;7.45;;;;;;;-11.26;66.72;100613.63;6276783;22;20007;-62
2024/01/21 03:43:37;;;;;;;18.35;8.18;;;;;;;-11.29;66.70;100613.56;6275849;22;20023;-64
2024/01/21 03:46:03;;;;;;;13.27;6.43;;;;;;;-11.33;66.78;100612.63;6277087;22;20022;-62
2024/01/21 03:48:29;;;;;;;15.93;7.78;;;;;;;-11.57;67.06;100571.63;6276327;22;20106;-63
2024/01/21 03:50:55;;;;;;;19.20;8.00;;;;;;;-11.41;67.14;100609.88;6277431;22;20061;-65
2024/01/21 03:53:21;;;;;;;16.45;7.43;;;;;;;-11.40;66.80;100614.19;6276086;22;20012;-64
2024/01/21 03:55:46;;;;;;;17.50;7.95;;;;;;;-11.69;67.11;100578.25;6277410;22;20419;-61
2024/01/21 03:58:12;;;;;;;21.77;7.50;;;;;;;-11.77;67.15;100566.00;6276685;22;20007;-62
2024/01/21 04:00:37;;;;;;;20.25;7.63;;;;;;;-11.49;66.87;100613.13;6276859;22;20409;-62
2024/01/21 04:03:03;;;;;;;18.23;8.02;;;;;;;-11.54;66.89;100608.72;6275679;22;20042;-61
2024/01/21 04:05:28;;;;;;;17.58;7.82;;;;;;;-11.50;67.47;100624.31;6276955;22;20008;-62
2024/01/21 04:07:54;;;;;;;18.52;8.00;;;;;;;-11.54;67.01;100636.28;6277421;22;20042;-64
2024/01/21 04:10:19;;;;;;;16.52;7.57;;;;;;;-11.54;67.13;100641.47;6277664;22;20003;-63
2024/01/21 04:12:45;;;;;;;22.75;7.53;;;;;;;-11.58;67.14;100632.75;6275950;22;19996;-62
2024/01/21 04:15:10;;;;;;;14.68;6.18;;;;;;;-11.56;67.04;100643.16;6276675;22;20011;-70
2024/01/21 04:17:36;;;;;;;13.65;7.00;;;;;;;-11.68;66.81;100626.50;6276417;22;20008;-60
2024/01/21 04:20:02;;;;;;;13.45;6.80;;;;;;;-11.66;66.50;100644.66;6250064;22;20000;-63
2024/01/21 04:22:29;;;;;;;15.50;6.95;;;;;;;-11.68;66.79;100660.09;6249805;22;20293;-59
2024/01/21 04:24:55;;;;;;;13.32;6.63;;;;;;;-11.71;66.90;100659.13;6277108;22;20003;-58
2024/01/21 04:27:20;;;;;;;11.65;5.53;;;;;;;-11.64;66.52;100673.97;6277734;22;20072;-63
2024/01/21 04:29:46;;;;;;;12.98;5.78;;;;;;;-11.74;66.56;100652.22;6276986;22;20094;-56
2024/01/21 04:32:11;;;;;;;17.45;6.43;;;;;;;-11.63;66.51;100682.56;6276744;22;20058;-57
2024/01/21 04:34:37;;;;;;;16.50;5.97;;;;;;;-11.79;66.27;100666.72;6276991;22;20038;-60
2024/01/21 04:37:02;;;;;;;13.85;6.18;;;;;;;-11.71;66.57;100684.97;6276268;22;20004;-62
2024/01/21 04:39:29;;;;;;;13.07;5.82;;;;;;;-11.70;66.00;100690.19;6276632;22;20004;-64
2024/01/21 04:41:54;;;;;;;12.70;5.28;;;;;;;-11.91;66.09;100662.13;6249006;22;20443;-59
2024/01/21 04:44:20;;;;;;;13.32;6.25;;;;;;;-11.70;65.95;100712.56;6276146;22;20012;-66
2024/01/21 04:46:45;;;;;;;11.30;5.50;;;;;;;-11.83;66.15;100690.72;6277090;22;20434;-63
2024/01/21 04:49:11;;;;;;;12.73;5.20;;;;;;;-11.74;66.02;100710.72;6276873;22;20008;-65
2024/01/21 04:51:37;;;;;;;12.63;5.35;;;;;;;-11.76;66.09;100720.16;6274465;22;20010;-64
2024/01/21 04:54:03;;;;;;;12.07;5.65;;;;;;;-11.77;65.82;100724.47;6276484;22;20007;-65
2024/01/21 04:56:29;;;;;;;12.57;5.88;;;;;;;-11.89;66.41;100709.53;6277046;22;20415;-67
2024/01/21 04:58:54;;;;;;;14.07;6.05;;;;;;;-11.80;66.48;100724.41;6276969;22;20411;-64
2024/01/21 05:01:22;;;;;;;14.90;6.57;;;;;;;-11.89;66.26;100718.97;6275769;22;20069;-66
2024/01/21 05:03:47;;;;;;;14.00;6.13;;;;;;;-11.84;66.28;100730.28;6249578;22;20099;-69
2024/01/21 05:06:13;;;;;;;16.02;6.40;;;;;;;-11.83;66.46;100734.63;6275335;22;20042;-65
2024/01/21 05:08:39;;;;;;;16.38;5.85;;;;;;;-11.83;66.45;100739.78;6275301;22;20007;-65
2024/01/21 05:11:04;;;;;;;13.90;6.13;;;;;;;-11.83;65.94;100742.38;6274587;22;20013;-65
2024/01/21 05:13:30;;;;;;;12.93;5.85;;;;;;;-11.95;66.00;100724.84;6276563;22;20008;-67
2024/01/21 05:15:55;;;;;;;14.00;6.22;;;;;;;-11.86;66.19;100750.03;6276619;22;20104;-65
2024/01/21 05:18:21;;;;;;;12.32;5.20;;;;;;;-11.88;66.00;100743.97;6276861;22;20081;-65
2024/01/21 05:20:47;;;;;;;12.25;5.80;;;;;;;-11.89;65.77;100740.53;6276371;22;20000;-64
2024/01/21 05:23:12;;;;;;;17.40;5.68;;;;;;;-11.89;65.82;100755.13;6275504;22;20381;-67
2024/01/21 05:25:38;;;;;;;11.52;5.55;;;;;;;-11.91;65.83;100756.81;6276574;22;20003;-65
2024/01/21 05:28:03;;;;;;;14.43;5.28;;;;;;;-11.90;65.95;100763.72;6276123;22;19995;-66
2024/01/21 05:30:29;;;;;;;12.77;5.43;;;;;;;-11.89;65.96;100768.94;6276373;22;20004;-68
2024/01/21 05:32:54;;;;;;;13.38;5.70;;;;;;;-11.88;65.64;100769.78;6276229;22;20087;-70
2024/01/21 05:35:22;;;;;;;9.15;4.93;;;;;;;-11.98;65.43;100756.66;6276532;22;20312;-67
2024/01/21 05:37:49;;;;;;;13.10;5.70;;;;;;;-11.92;65.25;100767.97;6276294;22;20008;-66
2024/01/21 05:40:14;;;;;;;15.93;5.38;;;;;;;-11.88;65.41;100781.00;6274562;22;20567;-67
2024/01/21 05:42:40;;;;;;;11.32;5.20;;;;;;;-11.83;65.28;100789.75;6276219;22;20018;-67
2024/01/21 05:45:07;;;;;;;11.35;4.95;;;;;;;-11.82;65.13;100788.03;6275010;22;20043;-67
2024/01/21 05:47:32;;;;;;;12.65;5.22;;;;;;;-11.75;64.84;100796.81;6276282;22;20451;-67
2024/01/21 05:49:58;;;;;;;11.98;4.93;;;;;;;-11.73;64.86;100785.69;6275865;22;20003;-66
2024/01/21 05:52:23;;;;;;;13.50;5.50;;;;;;;-11.65;64.54;100796.25;6276263;22;20022;-66
2024/01/21 05:54:49;;;;;;;11.02;4.95;;;;;;;-11.60;64.55;100809.25;6276377;22;20004;-63
2024/01/21 05:57:14;;;;;;;12.23;5.85;;;;;;;-11.56;64.43;100811.97;6275910;22;20040;-66
2024/01/21 05:59:40;;;;;;;15.40;6.28;;;;;;;-11.48;63.99;100819.94;6275388;22;20010;-64
2024/01/21 06:02:07;;;;;;;16.80;7.75;;;;;;;-11.48;64.54;100809.59;6275831;22;20000;-66
2024/01/21 06:04:33;;;;;;;21.48;8.15;;;;;;;-11.49;64.20;100813.00;6276401;22;20004;-66
2024/01/21 06:06:59;;;;;;;19.42;7.05;;;;;;;-11.64;64.24;100758.34;6275966;22;20057;-66
2024/01/21 06:09:25;;;;;;;17.02;7.93;;;;;;;-10.61;63.79;100815.91;6275343;22;20004;-65
2024/01/21 06:11:51;;;;;;;18.42;7.88;;;;;;;-9.66;61.93;100816.03;6275990;22;20054;-61
2024/01/21 06:14:16;;;;;;;18.92;8.02;;;;;;;-9.12;59.90;100811.78;6276346;22;20008;-63
2024/01/21 06:16:42;;;;;;;19.10;8.02;;;;;;;-8.58;58.37;100829.88;6274897;22;20004;-63
2024/01/21 06:19:08;;;;;;;14.57;7.63;;;;;;;-8.29;56.97;100767.00;6274337;22;20016;-65
2024/01/21 06:21:34;;;;;;;18.13;7.30;;;;;;;-7.31;55.11;100826.94;6274477;22;20050;-66
2024/01/21 06:23:59;;;;;;;16.63;7.88;;;;;;;-6.87;54.38;100796.91;6275879;22;20461;-64
2024/01/21 06:26:25;;;;;;;15.00;7.32;;;;;;;-5.92;53.11;100843.41;6275016;22;20083;-67
2024/01/21 06:28:51;;;;;;;12.77;6.75;;;;;;;-5.48;50.79;100809.63;6274227;22;20079;-58
2024/01/21 06:31:17;;;;;;;12.70;6.47;;;;;;;-4.33;49.73;100851.34;6275375;22;20080;-66
2024/01/21 06:33:42;;;;;;;12.93;6.60;;;;;;;-3.24;47.20;100849.09;6275075;22;20374;-75
2024/01/21 06:36:08;;;;;;;22.67;7.25;;;;;;;-2.86;46.35;100857.53;6275039;22;20035;-75
2024/01/21 06:38:34;;;;;;;14.65;7.65;;;;;;;-3.45;46.20;100868.41;6274147;22;20072;-68
2024/01/21 06:41:00;;;;;;;19.48;8.95;;;;;;;-3.62;47.31;100877.25;6275574;22;20007;-66
2024/01/21 06:43:26;;;;;;;18.67;9.00;;;;;;;-1.78;45.28;100865.13;6276409;22;20087;-73
2024/01/21 06:45:52;;;;;;;18.15;8.93;;;;;;;0.40;41.09;100870.22;6277771;22;20083;-65
2024/01/21 06:48:17;;;;;;;17.88;8.48;;;;;;;2.52;37.83;100884.19;6277560;22;20027;-67
2024/01/21 06:50:48;;;;;;;18.40;8.75;;;;;;;3.71;34.69;100877.69;6277709;22;20004;-66
2024/01/21 06:53:17;;;;;;;18.25;8.40;;;;;;;4.84;33.99;100877.09;6277162;22;20357;-66
2024/01/21 06:55:44;;;;;;;14.88;8.35;;;;;;;5.78;31.60;100871.44;6276706;22;20068;-68
2024/01/21 06:58:09;;;;;;;13.70;7.85;;;;;;;6.63;30.42;100867.63;6276797;22;20075;-68
2024/01/21 07:00:35;;;;;;;16.70;8.10;;;;;;;7.49;29.45;100885.66;6277715;22;20023;-67
2024/01/21 07:03:00;;;;;;;16.88;8.23;;;;;;;8.12;28.64;100886.84;6277985;22;20000;-67
2024/01/21 07:05:26;;;;;;;19.33;8.85;;;;;;;8.61;27.84;100890.50;6277623;22;20400;-67
2024/01/21 07:07:51;;;;;;;14.30;8.55;;;;;;;8.98;26.30;100884.91;6277384;22;20088;-68
2024/01/21 07:10:17;;;;;;;16.35;8.80;;;;;;;9.15;25.85;100882.13;6276959;22;20007;-67
2024/01/21 07:12:44;;;;;;;13.95;8.75;;;;;;;9.73;25.69;100878.78;6277132;22;20007;-67
2024/01/21 07:15:10;;;;;;;15.50;9.05;;;;;;;9.60;25.34;100879.50;6277023;22;20222;-68
2024/01/21 07:17:35;;;;;;;17.58;9.55;;;;;;;9.81;25.43;100881.00;6277263;22;20086;-69
2024/01/21 07:20:03;;;;;;;16.67;9.68;;;;;;;10.30;28.27;100891.34;6276716;22;20054;-69
2024/01/21 07:22:30;;;;;;;16.25;9.98;;;;;;;10.17;29.51;100885.03;6277398;22;20094;-69
2024/01/21 07:24:56;;;;;;;14.13;9.98;;;;;;;10.14;31.72;100912.84;6276999;22;20400;-67
2024/01/21 07:27:22;;;;;;;17.98;10.15;;;;;;;10.18;33.04;100909.03;6277024;22;20007;-66
2024/01/21 07:29:48;;;;;;;15.75;10.60;;;;;;;10.43;33.90;100918.25;6277052;22;20000;-66
2024/01/21 07:32:14;;;;;;;18.02;10.52;;;;;;;10.25;33.89;100912.19;6276324;22;20004;-66
2024/01/21 07:34:39;;;;;;;17.75;10.45;;;;;;;10.12;34.50;100847.84;6277406;22;20376;-66
2024/01/21 07:37:05;;;;;;;18.90;10.32;;;;;;;10.53;34.08;100909.63;6276016;22;20000;-66
2024/01/21 07:39:30;;;;;;;17.92;10.32;;;;;;;10.30;33.46;100914.56;6277522;22;20000;-67
2024/01/21 07:41:56;;;;;;;14.65;10.20;;;;;;;9.37;33.34;100894.25;6276292;22;20282;-66
2024/01/21 07:44:22;;;;;;;14.50;9.75;;;;;;;8.02;34.28;100929.16;6275575;22;20249;-67
2024/01/21 07:46:48;;;;;;;15.75;9.98;;;;;;;6.00;36.88;100880.19;6276495;22;20015;-66
2024/01/21 07:49:13;;;;;;;17.10;10.63;;;;;;;3.83;38.64;100879.03;6276039;22;20004;-69
2024/01/21 07:51:39;;;;;;;20.77;11.10;;;;;;;2.38;41.76;100929.53;6277073;22;20008;-72
2024/01/21 07:54:05;;;;;;;19.05;10.45;;;;;;;0.53;44.11;100876.09;6276959;22;20369;-71
2024/01/21 07:56:30;;;;;;;22.02;11.10;;;;;;;-0.76;46.17;100937.25;6274733;22;20057;-71
2024/01/21 07:58:56;;;;;;;18.42;11.23;;;;;;;-1.87;48.35;100942.25;6276727;22;20031;-71
2024/01/21 08:01:21;;;;;;;18.20;11.20;;;;;;;-2.73;50.88;100947.41;6275690;22;20000;-70
2024/01/21 08:03:47;;;;;;;25.63;11.98;;;;;;;-3.53;51.96;100956.59;6274949;22;20031;-71
2024/01/21 08:06:13;;;;;;;30.00;15.63;;;;;;;-4.18;53.48;100961.13;6276065;22;20000;-70
2024/01/21 08:08:39;;;;;;;33.65;16.63;;;;;;;-4.78;53.74;100958.53;6250261;22;20011;-71
2024/01/21 08:11:05;;;;;;;24.67;13.38;;;;;;;-5.29;55.15;100937.56;6276773;22;20019;-71
2024/01/21 08:13:30;;;;;;;25.77;11.85;;;;;;;-5.42;54.82;100967.97;6277068;22;20004;-71
2024/01/21 08:15:56;;;;;;;22.17;11.77;;;;;;;-5.70;55.01;100984.38;6276049;22;20004;-72
2024/01/21 08:18:21;;;;;;;28.33;12.32;;;;;;;-5.89;55.81;100977.31;6276250;22;20058;-70
2024/01/21 08:20:47;;;;;;;25.42;12.23;;;;;;;-6.10;55.61;100990.25;6276236;22;20019;-71
2024/01/21 08:23:13;;;;;;;23.95;12.13;;;;;;;-6.31;55.82;100983.13;6276183;22;20467;-69
2024/01/21 08:25:39;;;;;;;26.23;11.55;;;;;;;-6.43;56.12;100980.47;6274956;22;20034;-70
2024/01/21 08:28:04;;;;;;;26.38;11.93;;;;;;;-6.60;55.35;100973.38;6277630;22;19999;-66
2024/01/21 08:30:30;;;;;;;30.02;11.93;;;;;;;-6.53;55.81;100997.75;6276825;22;20003;-70
2024/01/21 08:32:56;;;;;;;24.85;11.73;;;;;;;-6.67;55.44;100976.78;6274100;22;20065;-70
2024/01/21 08:35:21;;;;;;;23.48;11.55;;;;;;;-6.66;56.34;100987.19;6276717;22;20000;-70
2024/01/21 08:37:47;;;;;;;23.48;10.63;;;;;;;-6.65;56.02;100988.09;6276471;22;20089;-70
2024/01/21 08:40:13;;;;;;;25.77;11.32;;;;;;;-6.66;56.21;100994.16;6274557;22;20008;-71
2024/01/21 08:42:39;;;;;;;33.45;14.07;;;;;;;-6.67;56.16;100987.19;6274347;22;20019;-70
2024/01/21 08:45:06;;;;;;;29.38;11.60;;;;;;;-6.68;55.68;100993.28;6275213;22;20012;-70
2024/01/21 08:47:33;;;;;;;24.33;10.68;;;;;;;-7.08;56.19;100921.72;6275182;22;20004;-72
2024/01/21 08:49:59;;;;;;;26.55;10.00;;;;;;;-6.69;56.45;100994.13;6274294;22;20038;-69
2024/01/21 08:52:24;;;;;;;20.05;10.70;;;;;;;-6.69;55.89;100983.72;6275701;22;20031;-70
2024/01/21 08:54:50;;;;;;;21.75;10.18;;;;;;;-6.70;56.58;100988.03;6275542;22;20011;-68
2024/01/21 08:57:15;;;;;;;23.17;11.15;;;;;;;-6.70;55.85;100984.56;6276514;22;20008;-69
2024/01/21 08:59:41;;;;;;;21.33;10.35;;;;;;;-6.85;56.45;100956.66;6275848;22;20004;-69
2024/01/21 09:02:07;;;;;;;20.02;10.18;;;;;;;-6.71;56.09;101003.66;6275423;22;20058;-67
2024/01/21 09:04:32;;;;;;;26.45;11.02;;;;;;;-6.80;55.94;100981.00;6280659;22;20000;-71
2024/01/21 09:06:58;;;;;;;23.90;11.02;;;;;;;-6.96;56.22;100965.22;6278897;22;20455;-69
2024/01/21 09:09:23;;;;;;;22.98;11.25;;;;;;;-6.73;56.09;101001.03;6278247;22;20027;-70
2024/01/21 09:11:50;;;;;;;22.80;11.77;;;;;;;-6.83;56.27;100997.47;6276232;22;20031;-70
2024/01/21 09:14:16;;;;;;;24.38;11.63;;;;;;;-6.94;55.92;100993.91;6274950;22;20019;-70
2024/01/21 09:16:41;;;;;;;21.65;11.27;;;;;;;-6.99;55.99;101005.97;6276629;22;20101;-70
2024/01/21 09:19:07;;;;;;;24.10;11.45;;;;;;;-7.11;55.85;100984.16;6276556;22;19999;-68
2024/01/21 09:21:34;;;;;;;24.70;10.68;;;;;;;-7.13;56.65;101009.31;6275695;22;20019;-69
2024/01/21 09:24:03;;;;;;;24.45;10.95;;;;;;;-7.19;56.59;101013.56;6276415;22;20007;-69
2024/01/21 09:26:32;;;;;;;22.42;10.38;;;;;;;-7.23;56.94;101029.16;6276424;22;20467;-71
2024/01/21 09:28:58;;;;;;;20.98;10.13;;;;;;;-7.26;57.01;101023.03;6276177;22;20014;-70
2024/01/21 09:31:23;;;;;;;23.45;11.00;;;;;;;-7.42;56.57;101008.94;6275459;22;20004;-70
2024/01/21 09:33:49;;;;;;;21.08;11.35;;;;;;;-7.74;56.54;100965.22;6274983;22;20003;-69
2024/01/21 09:36:15;;;;;;;22.13;11.50;;;;;;;-7.81;56.98;100966.84;6276421;22;20170;-70
2024/01/21 09:38:41;;;;;;;22.88;11.95;;;;;;;-7.48;56.87;101025.34;6276469;22;20012;-70
2024/01/21 09:41:42;;;;;;;20.90;10.38;;;;;;;-7.45;56.86;101029.72;6276651;22;20016;-70
2024/01/21 09:44:08;;;;;;;19.38;10.10;;;;;;;-7.58;57.25;101023.50;6275621;22;20015;-70
2024/01/21 09:46:34;;;;;;;20.42;10.63;;;;;;;-7.81;57.46;101009.34;6276622;22;20377;-70
2024/01/21 09:49:01;;;;;;;30.27;14.90;;;;;;;-7.81;57.04;101018.84;6275560;22;20095;-70
2024/01/21 09:51:29;;;;;;;25.23;12.57;;;;;;;-7.76;57.65;101031.94;6275745;22;20011;-70
2024/01/21 09:53:55;;;;;;;28.45;12.23;;;;;;;-7.84;57.58;101044.81;6275069;22;20011;-69
2024/01/21 09:56:22;;;;;;;25.35;11.80;;;;;;;-8.17;57.58;100996.69;6276163;22;20003;-70
2024/01/21 09:58:52;;;;;;;29.35;11.38;;;;;;;-7.91;57.55;101053.38;6273529;22;20003;-70
2024/01/21 10:01:18;;;;;;;28.35;11.80;;;;;;;-8.37;57.65;100990.31;6275526;22;20004;-70
2024/01/21 10:03:44;;;;;;;26.92;12.70;;;;;;;-8.07;58.67;101042.72;6275988;22;20022;-70
2024/01/21 10:06:10;;;;;;;23.95;11.82;;;;;;;-8.19;57.93;101045.16;6275865;22;20015;-69
2024/01/21 10:08:37;;;;;;;21.58;12.00;;;;;;;-8.31;57.82;101033.69;6275615;22;20003;-71
2024/01/21 10:11:03;;;;;;;25.15;11.90;;;;;;;-8.30;58.44;101035.44;6275995;22;20031;-69
2024/01/21 10:13:34;;;;;;;21.45;11.27;;;;;;;-8.32;58.13;101037.16;6276079;22;20003;-70
2024/01/21 10:16:00;;;;;;;28.00;12.70;;;;;;;-8.38;58.81;101032.72;6275924;22;20014;-72
2024/01/21 10:18:27;;;;;;;31.80;11.20;;;;;;;-8.38;58.93;101031.84;6274146;22;20312;-70
2024/01/21 10:20:52;;;;;;;23.75;10.93;;;;;;;-8.31;58.80;101033.69;6274817;22;20004;-70
2024/01/21 10:23:18;;;;;;;20.77;10.07;;;;;;;-8.25;58.75;101044.19;6274930;22;20042;-71
2024/01/21 10:25:44;;;;;;;19.85;9.95;;;;;;;-8.27;58.77;101034.63;6274278;22;20281;-70
2024/01/21 10:28:11;;;;;;;21.30;10.32;;;;;;;-8.19;58.56;101065.94;6275711;22;20014;-71
2024/01/21 10:30:38;;;;;;;24.38;11.32;;;;;;;-8.24;58.72;101048.53;6275132;22;20000;-70
2024/01/21 10:33:05;;;;;;;23.40;11.05;;;;;;;-8.25;59.04;101054.56;6248818;22;20066;-70
2024/01/21 10:35:30;;;;;;;24.67;10.82;;;;;;;-8.10;59.01;101064.34;6275757;22;20015;-70
2024/01/21 10:37:57;;;;;;;24.75;10.93;;;;;;;-8.13;58.66;101058.25;6275005;22;20007;-70
2024/01/21 10:40:24;;;;;;;26.05;10.80;;;;;;;-7.98;58.61;101076.66;6274323;22;20381;-70
2024/01/21 10:42:55;;;;;;;24.13;10.90;;;;;;;-8.00;58.65;101064.50;6274539;22;20024;-71
2024/01/21 10:45:22;;;;;;;25.30;11.93;;;;;;;-8.04;58.55;101055.78;6275351;22;20458;-69
2024/01/21 10:47:49;;;;;;;29.58;11.98;;;;;;;-7.94;58.54;101054.19;6274378;22;20065;-70
2024/01/21 10:50:17;;;;;;;22.70;10.48;;;;;;;-7.96;58.42;101045.50;6274809;22;20027;-70
2024/01/21 10:52:47;;;;;;;26.00;10.30;;;;;;;-7.78;58.40;101076.09;6276441;22;20006;-71
2024/01/21 10:55:12;;;;;;;21.90;10.32;;;;;;;-7.76;58.63;101069.19;6275634;22;20064;-68
2024/01/21 10:57:38;;;;;;;21.88;9.25;;;;;;;-8.07;58.49;101009.84;6274463;22;20007;-68
2024/01/21 11:00:06;;;;;;;21.13;10.15;;;;;;;-7.73;58.63;101071.84;6275037;22;20049;-70
2024/01/21 11:02:32;;;;;;;19.40;9.00;;;;;;;-7.71;58.14;101087.47;6275055;22;20032;-71
2024/01/21 11:04:58;;;;;;;21.70;9.40;;;;;;;-7.76;58.19;101084.78;6273822;22;20265;-71
2024/01/21 11:07:27;;;;;;;23.05;9.93;;;;;;;-7.65;58.26;101098.84;6249089;22;20042;-70